Time;durP1;ratioP1;P1;durP2;ratioP2;P2;SDS_P1;SDS_P2;PMS_P1;PMS_P2;Temp;Humidity;BMP_temperature;BMP_pressure;BME280_temperature;BME280_humidity;BME280_pressure;Samples;Min_cycle;Max_cycle;Signal;HPM_P1;HPM_P2
2022/09/14 00:00:41;;;;;;;3.85;2.80;;;16.80;99.90;;;;;;4993269;28;20042;-90
2022/09/14 00:03:07;;;;;;;3.15;2.63;;;16.80;99.90;;;;;;4994110;28;20026;-90
2022/09/14 00:05:36;;;;;;;4.55;2.70;;;16.90;99.90;;;;;;4993819;28;20475;-90
2022/09/14 00:08:03;;;;;;;3.47;2.78;;;16.90;99.90;;;;;;4993203;28;20080;-90
2022/09/14 00:10:29;;;;;;;3.53;2.80;;;16.90;99.90;;;;;;4995376;28;20061;-90
2022/09/14 00:12:56;;;;;;;2.88;2.65;;;17.00;99.90;;;;;;4996500;28;20045;-90
2022/09/14 00:15:22;;;;;;;4.40;2.80;;;17.00;99.90;;;;;;4995176;28;20026;-90
2022/09/14 00:17:48;;;;;;;4.65;2.90;;;17.00;99.90;;;;;;5010749;28;20056;-90
2022/09/14 00:20:16;;;;;;;3.20;2.88;;;17.00;99.90;;;;;;4996397;28;20064;-90
2022/09/14 00:22:42;;;;;;;;;;;17.10;99.90;;;;;;4995832;28;20614;-90
2022/09/14 00:25:09;;;;;;;3.50;3.20;;;17.10;99.90;;;;;;4996493;28;19925;-90
2022/09/14 00:27:35;;;;;;;5.95;3.38;;;17.10;99.90;;;;;;5012769;28;20022;-89
2022/09/14 00:30:01;;;;;;;4.10;3.20;;;17.10;99.90;;;;;;4999781;28;20085;-90
2022/09/14 00:32:30;;;;;;;5.47;3.35;;;17.10;99.90;;;;;;4997773;28;20030;-90
2022/09/14 00:34:56;;;;;;;3.47;3.17;;;17.10;99.90;;;;;;5001287;28;20088;-91
2022/09/14 00:37:22;;;;;;;2.97;2.67;;;17.10;99.90;;;;;;4999633;28;20036;-90
2022/09/14 00:39:49;;;;;;;5.43;2.90;;;17.00;99.90;;;;;;4985853;28;20576;-90
2022/09/14 00:42:18;;;;;;;3.88;3.30;;;16.90;99.90;;;;;;5016050;28;20010;-89
2022/09/14 00:44:47;;;;;;;4.35;2.92;;;16.90;99.90;;;;;;5017035;28;20037;-89
2022/09/14 00:47:15;;;;;;;5.18;2.92;;;16.90;99.90;;;;;;5030870;28;20117;-89
2022/09/14 00:49:42;;;;;;;3.33;3.03;;;16.90;99.90;;;;;;5015351;28;20046;-89
2022/09/14 00:52:15;;;;;;;3.20;2.90;;;17.00;99.90;;;;;;5014872;28;20022;-90
2022/09/14 00:54:46;;;;;;;3.30;2.95;;;16.90;99.90;;;;;;4994767;28;20038;-90
2022/09/14 00:57:12;;;;;;;3.42;3.13;;;16.90;99.90;;;;;;4995643;28;20030;-90
2022/09/14 00:59:40;;;;;;;2.97;2.78;;;17.00;99.90;;;;;;4995846;28;20037;-90
2022/09/14 01:02:08;;;;;;;3.65;2.70;;;16.90;99.90;;;;;;5002012;28;22120;-88
2022/09/14 01:07:21;;;;;;;4.40;3.17;;;16.90;99.90;;;;;;5064505;22;20304;-88
2022/09/14 01:10:08;;;;;;;5.53;3.40;;;17.00;99.90;;;;;;5058606;28;20064;-87
2022/09/14 01:13:06;;;;;;;4.40;3.30;;;16.90;99.90;;;;;;5054557;28;20041;-86
2022/09/14 01:15:47;;;;;;;3.25;2.90;;;16.90;99.90;;;;;;5008204;28;20025;-89
2022/09/14 01:18:14;;;;;;;3.70;3.30;;;17.00;99.90;;;;;;5073980;28;20033;-88
2022/09/14 01:20:56;;;;;;;4.53;3.03;;;17.00;99.90;;;;;;5072855;28;20170;-88
2022/09/14 01:23:38;;;;;;;3.47;3.00;;;16.90;99.90;;;;;;5054888;28;20025;-87
2022/09/14 01:26:22;;;;;;;5.10;3.00;;;16.90;99.90;;;;;;5056063;28;20036;-88
2022/09/14 01:29:12;;;;;;;3.47;2.85;;;16.90;99.90;;;;;;5072528;28;20025;-87
2022/09/14 01:32:01;;;;;;;4.50;3.60;;;16.90;99.90;;;;;;5056512;28;20040;-85
2022/09/14 01:34:42;;;;;;;3.65;3.30;;;17.00;99.90;;;;;;5058967;28;20083;-88
2022/09/14 01:37:13;;;;;;;4.88;4.07;;;16.80;99.90;;;;;;5072248;28;20124;-87
2022/09/14 01:39:49;;;;;;;4.43;3.00;;;16.80;99.90;;;;;;5074915;28;20052;-87
2022/09/14 01:42:19;;;;;;;4.60;3.50;;;16.90;99.90;;;;;;5072284;28;20059;-88
2022/09/14 01:44:49;;;;;;;4.65;3.17;;;16.90;99.90;;;;;;5055347;28;20021;-86
2022/09/14 01:47:22;;;;;;;4.13;3.20;;;16.90;99.90;;;;;;5056698;28;20112;-87
2022/09/14 01:50:14;;;;;;;4.15;3.28;;;16.90;99.90;;;;;;5056544;28;20158;-88
2022/09/14 01:52:47;;;;;;;4.47;2.60;;;16.90;99.90;;;;;;5073570;28;20124;-88
2022/09/14 01:55:20;;;;;;;3.85;3.20;;;16.90;99.90;;;;;;5057512;28;20036;-87
2022/09/14 01:58:11;;;;;;;5.82;3.10;;;16.90;99.90;;;;;;5055882;28;20499;-87
2022/09/14 02:00:42;;;;;;;3.33;3.03;;;16.90;99.90;;;;;;5071689;28;20057;-87
2022/09/14 02:03:15;;;;;;;4.07;3.10;;;17.00;99.90;;;;;;5053934;28;20955;-87
2022/09/14 02:05:47;;;;;;;5.28;3.17;;;17.00;99.90;;;;;;5056454;28;20025;-87
2022/09/14 02:08:14;;;;;;;3.65;3.03;;;17.00;99.90;;;;;;5058675;28;20043;-87
2022/09/14 02:10:46;;;;;;;4.43;3.33;;;17.00;99.90;;;;;;5057056;28;20247;-86
2022/09/14 02:13:12;;;;;;;3.42;3.13;;;17.00;99.90;;;;;;5059566;28;20089;-88
2022/09/14 02:15:38;;;;;;;3.90;3.50;;;17.00;99.90;;;;;;5056646;28;20029;-88
2022/09/14 02:18:05;;;;;;;3.58;3.28;;;17.00;99.90;;;;;;5056683;28;20477;-88
2022/09/14 02:20:46;;;;;;;3.35;3.03;;;17.10;99.90;;;;;;5056373;28;20025;-87
2022/09/14 02:23:12;;;;;;;3.63;3.33;;;17.00;99.90;;;;;;5055850;28;20029;-88
2022/09/14 02:25:39;;;;;;;3.38;3.00;;;17.00;99.90;;;;;;5072115;28;20025;-87
2022/09/14 02:28:06;;;;;;;3.72;2.97;;;17.00;99.90;;;;;;5054912;28;20026;-88
2022/09/14 02:30:48;;;;;;;4.68;3.35;;;17.10;99.90;;;;;;5073657;28;20124;-88
2022/09/14 02:33:26;;;;;;;4.00;3.60;;;17.10;99.90;;;;;;5073450;28;20366;-88
2022/09/14 02:36:01;;;;;;;4.95;3.10;;;17.10;99.90;;;;;;5077907;28;20029;-87
2022/09/14 02:38:55;;;;;;;4.72;3.40;;;17.00;99.90;;;;;;5059785;28;20033;-88
2022/09/14 02:41:25;;;;;;;3.13;2.92;;;17.00;99.90;;;;;;5052600;28;20038;-88
2022/09/14 02:44:20;;;;;;;3.65;3.20;;;17.00;99.90;;;;;;5063909;28;20108;-87
2022/09/14 02:46:49;;;;;;;3.67;3.05;;;17.00;99.90;;;;;;5074436;28;20054;-88
2022/09/14 02:49:39;;;;;;;5.88;3.47;;;17.00;99.90;;;;;;5056682;28;20025;-87
2022/09/14 02:52:20;;;;;;;4.03;3.63;;;17.00;99.90;;;;;;5059362;28;20025;-86
2022/09/14 02:55:02;;;;;;;3.92;2.90;;;17.10;99.90;;;;;;5072046;28;20022;-88
2022/09/14 02:57:28;;;;;;;4.05;2.75;;;17.00;99.90;;;;;;5079466;28;20021;-88
2022/09/14 02:59:54;;;;;;;3.20;3.00;;;17.00;99.90;;;;;;5065435;28;20039;-86
2022/09/14 03:02:21;;;;;;;4.20;3.00;;;17.00;99.90;;;;;;5079118;28;20033;-86
2022/09/14 03:04:47;;;;;;;3.70;3.30;;;17.10;99.90;;;;;;5039621;28;20045;-88
2022/09/14 03:07:13;;;;;;;9.18;3.70;;;17.10;99.90;;;;;;5059889;28;20024;-88
2022/09/14 03:09:41;;;;;;;3.90;3.60;;;17.10;99.90;;;;;;5081436;28;20476;-85
2022/09/14 03:12:08;;;;;;;3.33;3.03;;;17.00;99.90;;;;;;5082744;28;20021;-88
2022/09/14 03:14:34;;;;;;;3.90;3.50;;;16.90;99.90;;;;;;5076801;28;20026;-88
2022/09/14 03:17:00;;;;;;;4.50;3.25;;;17.00;99.90;;;;;;5060856;28;20056;-88
2022/09/14 03:19:26;;;;;;;6.15;3.60;;;17.00;99.90;;;;;;5079094;28;20078;-86
2022/09/14 03:21:52;;;;;;;4.43;2.97;;;17.00;99.90;;;;;;5049097;28;20025;-86
2022/09/14 03:24:19;;;;;;;3.50;3.20;;;17.00;99.90;;;;;;5066137;28;20033;-88
2022/09/14 03:26:46;;;;;;;3.70;3.38;;;17.00;99.90;;;;;;5049748;28;20029;-88
2022/09/14 03:29:12;;;;;;;3.50;3.10;;;17.00;99.90;;;;;;5063471;28;20030;-87
2022/09/14 03:31:41;;;;;;;4.78;3.50;;;17.10;99.90;;;;;;5063689;28;20017;-87
2022/09/14 03:34:10;;;;;;;5.45;3.17;;;17.10;99.90;;;;;;5064162;28;20044;-88
2022/09/14 03:36:36;;;;;;;3.40;3.10;;;17.10;99.90;;;;;;5079227;28;20055;-88
2022/09/14 03:39:03;;;;;;;3.25;3.05;;;17.10;99.90;;;;;;5062173;28;20029;-88
2022/09/14 03:41:29;;;;;;;4.07;3.50;;;17.10;99.90;;;;;;5079169;28;20029;-89
2022/09/14 03:43:55;;;;;;;3.70;3.13;;;17.10;99.90;;;;;;5063887;28;20037;-87
2022/09/14 03:46:23;;;;;;;3.95;3.30;;;17.00;99.90;;;;;;5078436;28;20028;-87
2022/09/14 03:48:49;;;;;;;3.42;3.05;;;17.00;99.90;;;;;;5064012;28;20021;-89
2022/09/14 03:51:15;;;;;;;4.55;3.22;;;17.00;99.90;;;;;;5064137;28;20029;-87
2022/09/14 03:53:43;;;;;;;5.50;3.63;;;17.00;99.90;;;;;;5081488;28;20025;-87
2022/09/14 03:56:10;;;;;;;;;;;17.00;99.90;;;;;;5070001;28;20029;-87
2022/09/14 03:58:37;;;;;;;3.65;3.30;;;17.00;99.90;;;;;;5060984;28;20392;-87
2022/09/14 04:01:08;;;;;;;5.30;3.85;;;17.00;99.90;;;;;;5063106;28;20992;-88
2022/09/14 04:03:34;;;;;;;3.47;3.17;;;16.90;99.90;;;;;;5063196;28;20087;-88
2022/09/14 04:06:04;;;;;;;5.82;3.53;;;16.80;99.90;;;;;;5058204;28;20027;-87
2022/09/14 04:08:34;;;;;;;5.97;3.40;;;16.80;99.90;;;;;;5062676;28;20044;-87
2022/09/14 04:11:06;;;;;;;4.22;3.60;;;16.80;99.90;;;;;;5061972;28;20045;-88
2022/09/14 04:13:32;;;;;;;3.70;3.40;;;16.80;99.90;;;;;;5064352;28;20076;-86
2022/09/14 04:15:59;;;;;;;4.18;3.63;;;16.90;99.90;;;;;;5078522;28;20060;-87
2022/09/14 04:18:26;;;;;;;3.40;3.10;;;16.80;99.90;;;;;;5059641;28;20017;-87
2022/09/14 04:21:00;;;;;;;4.07;3.05;;;16.90;99.90;;;;;;5056019;28;20112;-88
2022/09/14 04:23:27;;;;;;;5.32;3.35;;;16.90;99.90;;;;;;5079070;28;20048;-87
2022/09/14 04:25:53;;;;;;;4.07;3.58;;;16.90;99.90;;;;;;5062970;28;20021;-88
2022/09/14 04:28:20;;;;;;;3.45;3.15;;;16.90;99.90;;;;;;5063560;28;20025;-87
2022/09/14 04:31:01;;;;;;;3.67;3.22;;;17.00;99.90;;;;;;5058418;28;20105;-87
2022/09/14 04:33:31;;;;;;;3.75;3.40;;;17.00;99.90;;;;;;5062050;28;20037;-88
2022/09/14 04:36:01;;;;;;;4.65;3.50;;;17.00;99.90;;;;;;5063536;28;20033;-87
2022/09/14 04:38:29;;;;;;;3.30;3.00;;;17.00;99.90;;;;;;5064524;28;20068;-87
2022/09/14 04:40:55;;;;;;;5.20;3.20;;;16.90;99.90;;;;;;5062878;28;20049;-87
2022/09/14 04:43:23;;;;;;;4.22;2.95;;;17.00;99.90;;;;;;5049098;28;20120;-87
2022/09/14 04:45:49;;;;;;;5.75;2.97;;;17.00;99.90;;;;;;5061775;28;20066;-87
2022/09/14 04:48:15;;;;;;;3.63;3.10;;;17.00;99.90;;;;;;5081449;28;20033;-86
2022/09/14 04:50:42;;;;;;;3.67;3.30;;;17.10;99.90;;;;;;5064666;28;20470;-88
2022/09/14 04:53:08;;;;;;;4.72;3.05;;;17.10;99.90;;;;;;5062479;28;20036;-88
2022/09/14 04:55:34;;;;;;;3.67;3.30;;;17.00;99.90;;;;;;5062866;28;20128;-87
2022/09/14 04:58:03;;;;;;;4.47;3.22;;;17.00;99.90;;;;;;5078410;28;20083;-87
2022/09/14 05:00:29;;;;;;;4.53;3.30;;;16.90;99.90;;;;;;5057907;28;20029;-87
2022/09/14 05:02:55;;;;;;;3.47;3.08;;;16.90;99.90;;;;;;5080229;28;20079;-87
2022/09/14 05:05:21;;;;;;;4.43;3.15;;;16.80;99.90;;;;;;5063880;28;20460;-87
2022/09/14 05:07:47;;;;;;;4.13;3.22;;;16.80;99.90;;;;;;5081413;28;20049;-88
2022/09/14 05:10:14;;;;;;;5.20;3.30;;;16.90;99.90;;;;;;5058000;28;20097;-87
2022/09/14 05:12:40;;;;;;;4.68;3.35;;;16.90;99.90;;;;;;5064289;28;20060;-86
2022/09/14 05:15:08;;;;;;;3.80;3.35;;;17.00;99.90;;;;;;5062037;28;20033;-88
2022/09/14 05:17:34;;;;;;;3.80;3.38;;;16.90;99.90;;;;;;5057764;28;20102;-88
2022/09/14 05:20:01;;;;;;;3.85;3.25;;;16.90;99.90;;;;;;5058859;28;20025;-87
2022/09/14 05:22:27;;;;;;;3.97;3.33;;;17.00;99.90;;;;;;5058868;28;21013;-88
2022/09/14 05:24:55;;;;;;;3.65;3.15;;;17.00;99.90;;;;;;5060735;28;20025;-87
2022/09/14 05:27:21;;;;;;;4.15;3.20;;;17.00;99.90;;;;;;5064328;28;20469;-87
2022/09/14 05:29:47;;;;;;;6.43;3.58;;;17.10;99.90;;;;;;5062691;28;20028;-87
2022/09/14 05:32:13;;;;;;;5.07;3.60;;;17.10;99.90;;;;;;5073065;28;20033;-87
2022/09/14 05:34:39;;;;;;;5.57;3.30;;;17.00;99.90;;;;;;5080252;28;20052;-88
2022/09/14 05:37:05;;;;;;;4.72;3.00;;;17.00;99.90;;;;;;5061749;28;20025;-86
2022/09/14 05:39:31;;;;;;;3.55;3.22;;;17.00;99.90;;;;;;5078117;28;20047;-87
2022/09/14 05:41:57;;;;;;;5.45;3.05;;;17.00;99.90;;;;;;5061491;28;20123;-87
2022/09/14 05:44:22;;;;;;;5.25;3.13;;;17.00;99.90;;;;;;5059680;28;20886;-87
2022/09/14 05:46:50;;;;;;;3.35;3.05;;;17.00;99.90;;;;;;5057848;28;20033;-86
2022/09/14 05:49:16;;;;;;;6.83;3.13;;;17.00;99.90;;;;;;5066466;28;20036;-87
2022/09/14 05:51:42;;;;;;;5.95;3.50;;;17.10;99.90;;;;;;5066584;28;20029;-87
2022/09/14 05:54:10;;;;;;;4.18;3.00;;;17.10;99.90;;;;;;5063493;28;20067;-87
2022/09/14 05:56:37;;;;;;;3.45;3.15;;;17.10;99.90;;;;;;5082144;28;20032;-86
2022/09/14 05:59:06;;;;;;;8.82;3.45;;;17.10;99.90;;;;;;5068094;28;20020;-87
2022/09/14 06:01:32;;;;;;;3.92;3.15;;;17.20;99.90;;;;;;5057988;28;20071;-87
2022/09/14 06:04:03;;;;;;;5.53;2.97;;;17.30;99.90;;;;;;5063428;28;20020;-86
2022/09/14 06:06:31;;;;;;;4.10;3.08;;;17.30;99.90;;;;;;5059634;28;20489;-87
2022/09/14 06:08:58;;;;;;;3.50;3.20;;;17.30;99.90;;;;;;5059289;28;20047;-86
2022/09/14 06:11:27;;;;;;;4.60;3.20;;;17.40;99.90;;;;;;5062091;28;20029;-87
2022/09/14 06:13:55;;;;;;;5.10;3.55;;;17.40;99.90;;;;;;5037032;28;20030;-87
2022/09/14 06:16:22;;;;;;;4.05;2.95;;;17.40;99.90;;;;;;5062509;28;20029;-87
2022/09/14 06:18:49;;;;;;;4.00;3.65;;;17.40;99.90;;;;;;5062980;28;20033;-87
2022/09/14 06:21:18;;;;;;;6.70;3.92;;;17.30;99.90;;;;;;5077010;28;20037;-87
2022/09/14 06:23:46;;;;;;;9.57;3.53;;;17.30;99.90;;;;;;5074871;28;20096;-87
2022/09/14 06:26:12;;;;;;;4.43;3.78;;;17.40;99.90;;;;;;5082209;28;20024;-87
2022/09/14 06:28:38;;;;;;;5.97;3.30;;;17.40;99.90;;;;;;5085676;28;20043;-87
2022/09/14 06:31:06;;;;;;;3.97;3.40;;;17.50;99.90;;;;;;5067843;28;20067;-86
2022/09/14 06:33:34;;;;;;;5.40;3.25;;;17.50;99.90;;;;;;5070734;28;20033;-86
2022/09/14 06:36:11;;;;;;;5.70;3.63;;;17.50;99.90;;;;;;5069488;28;20029;-86
2022/09/14 06:38:37;;;;;;;3.85;3.40;;;17.60;99.90;;;;;;5067151;28;20036;-86
2022/09/14 06:41:06;;;;;;;4.68;3.10;;;17.70;99.90;;;;;;5069171;28;20033;-86
2022/09/14 06:43:35;;;;;;;4.50;3.55;;;17.70;99.90;;;;;;5067961;28;20029;-87
2022/09/14 06:46:06;;;;;;;4.57;3.28;;;17.80;99.90;;;;;;5084328;28;20032;-87
2022/09/14 06:48:36;;;;;;;3.55;3.20;;;17.80;99.90;;;;;;5061969;28;20051;-86
2022/09/14 06:51:23;;;;;;;5.18;3.08;;;17.90;99.90;;;;;;5071397;28;20025;-86
2022/09/14 06:53:52;;;;;;;3.35;2.95;;;18.00;99.90;;;;;;5069184;28;20029;-86
2022/09/14 06:56:19;;;;;;;4.95;3.00;;;18.00;99.90;;;;;;5067068;28;20052;-87
2022/09/14 06:58:45;;;;;;;4.50;2.80;;;18.10;99.90;;;;;;5085620;28;20063;-86
2022/09/14 07:01:13;;;;;;;2.92;2.60;;;18.20;99.90;;;;;;5070836;28;20033;-86
2022/09/14 07:03:42;;;;;;;3.47;3.10;;;18.30;99.90;;;;;;5078719;28;20029;-87
2022/09/14 07:06:11;;;;;;;3.00;2.42;;;18.40;99.90;;;;;;5068610;28;20354;-87
2022/09/14 07:08:38;;;;;;;3.38;2.80;;;18.50;99.90;;;;;;5072145;28;20045;-86
2022/09/14 07:11:06;;;;;;;3.03;2.72;;;18.60;99.90;;;;;;5050939;28;20029;-86
2022/09/14 07:13:32;;;;;;;6.15;2.70;;;18.80;99.90;;;;;;5063835;28;20102;-86
2022/09/14 07:15:58;;;;;;;3.30;2.65;;;18.90;99.90;;;;;;5065911;28;20036;-86
2022/09/14 07:18:31;;;;;;;3.38;2.38;;;18.90;99.90;;;;;;5058391;28;20191;-87
2022/09/14 07:21:14;;;;;;;4.35;2.95;;;19.00;99.90;;;;;;5067653;28;20029;-86
2022/09/14 07:23:43;;;;;;;3.20;2.42;;;19.10;99.90;;;;;;5067915;28;20039;-86
2022/09/14 07:26:17;;;;;;;4.45;2.45;;;19.20;99.90;;;;;;5067584;28;20021;-87
2022/09/14 07:28:44;;;;;;;4.82;2.55;;;19.30;99.90;;;;;;5055769;28;20029;-87
2022/09/14 07:31:20;;;;;;;4.90;2.78;;;19.40;99.90;;;;;;5065593;28;20033;-87
2022/09/14 07:33:47;;;;;;;3.70;2.50;;;19.50;99.90;;;;;;5054957;28;20506;-87
2022/09/14 07:36:14;;;;;;;2.60;2.33;;;19.50;99.90;;;;;;5067822;28;20653;-86
2022/09/14 07:38:40;;;;;;;2.72;2.35;;;19.60;99.90;;;;;;5067702;28;20040;-87
2022/09/14 07:41:06;;;;;;;4.72;2.42;;;19.60;99.90;;;;;;5065339;28;20056;-86
2022/09/14 07:43:32;;;;;;;2.40;2.20;;;19.70;99.90;;;;;;5064956;28;20029;-85
2022/09/14 07:46:03;;;;;;;4.78;2.55;;;19.70;99.90;;;;;;5067366;28;20024;-87
2022/09/14 07:48:29;;;;;;;4.25;2.38;;;19.80;99.90;;;;;;5066559;28;20047;-88
2022/09/14 07:51:02;;;;;;;2.70;2.40;;;19.90;99.90;;;;;;5067797;28;20048;-86
2022/09/14 07:53:28;;;;;;;3.65;2.17;;;20.00;99.90;;;;;;5047699;28;20092;-86
2022/09/14 07:55:57;;;;;;;2.63;2.42;;;20.00;99.90;;;;;;5049116;28;20688;-86
2022/09/14 07:58:23;;;;;;;3.05;2.75;;;20.20;99.90;;;;;;5067814;28;20025;-87
2022/09/14 08:00:49;;;;;;;3.40;2.22;;;20.30;99.90;;;;;;5083761;28;20059;-86
2022/09/14 08:03:15;;;;;;;3.33;2.72;;;20.40;99.90;;;;;;5072592;28;20036;-86
2022/09/14 08:05:41;;;;;;;2.65;2.28;;;20.50;99.90;;;;;;5084451;28;20813;-86
2022/09/14 08:08:07;;;;;;;3.67;2.50;;;20.60;99.90;;;;;;5022205;28;1283051;-86
2022/09/14 08:10:34;;;;;;;3.97;2.63;;;20.80;99.90;;;;;;5068530;28;20059;-87
2022/09/14 08:13:00;;;;;;;3.38;2.05;;;21.00;99.90;;;;;;5082303;28;20021;-86
2022/09/14 08:15:27;;;;;;;4.47;2.25;;;21.10;99.90;;;;;;5086641;28;20029;-86
2022/09/14 08:17:54;;;;;;;2.45;2.20;;;21.30;99.90;;;;;;5070472;28;20048;-87
2022/09/14 08:20:20;;;;;;;2.83;2.20;;;21.40;99.90;;;;;;5070288;28;20455;-87
2022/09/14 08:22:45;;;;;;;4.38;2.30;;;21.50;99.90;;;;;;5068254;28;20080;-86
2022/09/14 08:25:11;;;;;;;2.30;2.10;;;21.60;99.90;;;;;;5072381;28;20024;-87
2022/09/14 08:27:38;;;;;;;4.38;2.33;;;21.70;99.90;;;;;;5070105;28;20024;-87
2022/09/14 08:30:12;;;;;;;2.53;2.33;;;21.70;99.90;;;;;;5070176;28;20025;-86
2022/09/14 08:32:39;;;;;;;3.38;2.45;;;21.70;99.90;;;;;;5070638;28;20062;-87
2022/09/14 08:35:06;;;;;;;2.60;2.35;;;21.80;99.90;;;;;;5072669;28;20036;-86
2022/09/14 08:37:31;;;;;;;7.20;2.60;;;21.70;99.90;;;;;;5087723;28;20112;-86
2022/09/14 08:39:57;;;;;;;7.95;2.63;;;21.80;99.90;;;;;;5071821;28;20049;-86
2022/09/14 08:42:24;;;;;;;3.63;2.40;;;21.90;99.90;;;;;;5058913;28;20354;-87
2022/09/14 08:45:01;;;;;;;2.20;2.00;;;21.80;99.90;;;;;;5084145;28;20021;-88
2022/09/14 08:47:37;;;;;;;2.20;2.00;;;21.80;99.90;;;;;;5065642;28;20290;-86
2022/09/14 08:50:10;;;;;;;2.20;2.05;;;21.70;99.90;;;;;;5086610;28;20033;-87
2022/09/14 08:52:47;;;;;;;3.30;2.03;;;21.70;99.90;;;;;;5087296;28;20013;-86
2022/09/14 08:55:41;;;;;;;5.22;2.65;;;21.70;99.90;;;;;;5087527;28;20078;-87
2022/09/14 08:58:29;;;;;;;1.85;1.75;;;21.70;99.90;;;;;;5063772;28;20088;-88
2022/09/14 09:01:05;;;;;;;;;;;21.70;99.90;;;;;;5082415;28;20064;-86
2022/09/14 09:03:38;;;;;;;3.33;2.10;;;21.80;99.90;;;;;;5081494;28;19916;-87
2022/09/14 09:06:36;;;;;;;2.88;2.10;;;22.00;99.90;;;;;;5070896;28;20222;-87
2022/09/14 09:09:36;;;;;;;3.92;1.95;;;22.20;99.90;;;;;;5068411;28;20045;-87
2022/09/14 09:12:05;;;;;;;6.95;2.33;;;22.40;99.90;;;;;;5069927;28;20052;-86
2022/09/14 09:14:38;;;;;;;2.38;2.15;;;22.50;99.90;;;;;;5051542;28;20099;-87
2022/09/14 09:17:13;;;;;;;4.43;2.42;;;22.60;99.90;;;;;;5079041;28;20537;-86
2022/09/14 09:19:56;;;;;;;3.30;2.10;;;22.60;99.90;;;;;;5070800;28;20027;-87
2022/09/14 09:22:29;;;;;;;3.20;2.15;;;22.70;99.90;;;;;;5061456;28;20022;-88
2022/09/14 09:24:55;;;;;;;3.72;2.10;;;22.90;99.90;;;;;;5081557;28;20036;-86
2022/09/14 09:27:23;;;;;;;7.53;2.40;;;22.90;99.90;;;;;;5069050;28;20020;-87
2022/09/14 09:29:48;;;;;;;;;;;22.90;99.90;;;;;;5086872;28;20511;-86
2022/09/14 09:32:18;;;;;;;3.63;2.30;;;23.10;99.90;;;;;;5068999;28;19913;-86
2022/09/14 09:34:44;;;;;;;4.22;2.08;;;23.30;99.90;;;;;;5053238;28;20044;-86
2022/09/14 09:37:19;;;;;;;3.95;2.05;;;23.40;99.90;;;;;;5068912;28;20401;-86
2022/09/14 09:39:45;;;;;;;4.72;1.75;;;23.40;99.90;;;;;;5069595;28;20091;-87
2022/09/14 09:42:27;;;;;;;6.75;1.90;;;23.50;99.90;;;;;;5069136;28;20029;-87
2022/09/14 09:44:56;;;;;;;4.50;2.05;;;23.60;99.90;;;;;;5069922;28;20033;-87
2022/09/14 09:47:32;;;;;;;2.78;2.10;;;23.50;99.90;;;;;;5074571;28;20025;-87
2022/09/14 09:50:00;;;;;;;2.38;1.70;;;23.60;99.90;;;;;;5082040;28;20021;-87
2022/09/14 09:52:33;;;;;;;2.22;2.03;;;23.90;99.90;;;;;;5076621;28;20021;-87
2022/09/14 09:54:59;;;;;;;2.17;1.50;;;24.10;99.90;;;;;;5074419;28;20025;-86
2022/09/14 09:57:34;;;;;;;7.63;1.77;;;24.00;99.90;;;;;;5057626;28;20021;-86
2022/09/14 10:00:20;;;;;;;3.78;1.77;;;23.90;99.40;;;;;;5066500;28;20090;-88
2022/09/14 10:02:48;;;;;;;4.35;2.10;;;23.80;99.90;;;;;;5069071;28;20097;-86
2022/09/14 10:05:24;;;;;;;2.65;1.58;;;23.70;99.90;;;;;;5065644;28;20027;-87
2022/09/14 10:07:52;;;;;;;3.00;1.75;;;23.50;99.90;;;;;;5067574;28;20128;-87
2022/09/14 10:10:25;;;;;;;1.98;1.77;;;23.60;99.90;;;;;;5076086;28;20045;-87
2022/09/14 10:12:54;;;;;;;2.65;1.80;;;23.50;99.90;;;;;;5073324;28;20103;-87
2022/09/14 10:15:26;;;;;;;4.97;3.25;;;23.40;99.90;;;;;;5068701;28;20083;-87
2022/09/14 10:18:07;;;;;;;3.13;2.00;;;23.40;99.90;;;;;;5071139;28;20030;-88
2022/09/14 10:20:35;;;;;;;3.75;2.20;;;23.30;99.90;;;;;;5063028;28;20021;-87
2022/09/14 10:23:21;;;;;;;3.13;2.45;;;23.20;99.90;;;;;;5079598;28;20021;-86
2022/09/14 10:25:51;;;;;;;3.25;2.13;;;23.20;99.90;;;;;;5066807;28;20041;-87
2022/09/14 10:28:27;;;;;;;2.50;1.70;;;23.20;99.90;;;;;;5068818;28;20081;-87
2022/09/14 10:31:16;;;;;;;4.28;2.38;;;23.20;99.90;;;;;;5064463;28;20029;-87
2022/09/14 10:33:47;;;;;;;2.88;1.80;;;23.50;99.90;;;;;;5078801;28;20030;-86
2022/09/14 10:36:39;;;;;;;5.55;2.40;;;23.70;99.90;;;;;;5084186;28;20055;-87
2022/09/14 10:39:36;;;;;;;4.25;2.33;;;23.90;99.90;;;;;;5067312;28;20059;-88
2022/09/14 10:42:18;;;;;;;4.70;2.10;;;23.90;99.90;;;;;;5068802;28;20044;-87
2022/09/14 10:44:56;;;;;;;2.72;2.10;;;24.00;99.90;;;;;;5068016;28;20041;-86
2022/09/14 10:47:25;;;;;;;3.78;2.25;;;24.10;99.90;;;;;;5077448;28;20032;-87
2022/09/14 10:50:00;;;;;;;2.80;2.20;;;24.20;99.90;;;;;;5078586;28;20037;-87
2022/09/14 10:52:42;;;;;;;4.10;2.20;;;24.20;98.90;;;;;;5084005;28;20017;-86
2022/09/14 10:55:42;;;;;;;6.28;2.47;;;24.20;99.90;;;;;;5084071;28;20025;-87
2022/09/14 10:58:47;;;;;;;5.45;1.92;;;24.20;99.90;;;;;;5066999;28;20036;-87
2022/09/14 11:01:54;;;;;;;3.10;1.92;;;24.40;99.90;;;;;;5059353;28;20037;-87
2022/09/14 11:04:33;;;;;;;1.98;1.88;;;24.40;99.90;;;;;;5072216;28;20036;-87
2022/09/14 11:07:11;;;;;;;4.72;2.40;;;24.50;99.90;;;;;;5065380;28;20037;-86
2022/09/14 11:09:46;;;;;;;2.53;2.30;;;24.70;99.90;;;;;;5065781;28;20104;-86
2022/09/14 11:12:30;;;;;;;2.83;2.63;;;24.90;98.70;;;;;;5057601;28;20025;-87
2022/09/14 11:15:14;;;;;;;3.33;2.22;;;24.80;99.90;;;;;;5087130;28;20001;-86
2022/09/14 11:17:50;;;;;;;1.80;1.70;;;24.80;99.90;;;;;;5084023;28;20056;-86
2022/09/14 11:20:24;;;;;;;3.10;2.10;;;24.70;98.40;;;;;;5071392;28;20025;-86
2022/09/14 11:23:44;;;;;;;3.63;2.15;;;24.90;99.90;;;;;;5084038;28;20025;-87
2022/09/14 11:26:30;;;;;;;2.80;2.50;;;25.10;99.80;;;;;;4983653;28;20031;-87
2022/09/14 11:29:23;;;;;;;2.38;1.85;;;25.10;98.10;;;;;;5064048;28;20033;-86
2022/09/14 11:32:38;;;;;;;4.72;2.00;;;24.90;97.30;;;;;;5064332;28;20057;-86
2022/09/14 11:35:21;;;;;;;5.57;1.92;;;24.60;96.90;;;;;;5037552;28;20040;-86
2022/09/14 11:37:55;;;;;;;2.83;2.03;;;24.50;96.90;;;;;;5069907;28;20025;-87
2022/09/14 11:41:13;;;;;;;3.92;2.00;;;24.60;99.60;;;;;;5070274;28;20032;-87
2022/09/14 11:44:14;;;;;;;3.20;2.10;;;24.60;97.20;;;;;;5082887;28;20120;-85
2022/09/14 11:46:52;;;;;;;2.25;1.80;;;24.50;97.40;;;;;;5061835;28;20029;-88
2022/09/14 11:49:40;;;;;;;1.73;1.63;;;24.40;96.50;;;;;;5083050;28;20028;-86
2022/09/14 11:52:22;;;;;;;3.70;1.90;;;24.30;95.70;;;;;;5082757;28;20028;-86
2022/09/14 11:54:49;;;;;;;3.58;2.00;;;24.20;97.10;;;;;;5065960;28;20024;-86
2022/09/14 11:57:30;;;;;;;2.65;1.95;;;24.10;97.50;;;;;;5069782;28;20032;-87
2022/09/14 11:59:58;;;;;;;2.55;2.00;;;24.10;99.20;;;;;;5069035;28;20093;-88
2022/09/14 12:02:25;;;;;;;3.60;2.33;;;24.30;99.90;;;;;;5066843;28;20037;-87
2022/09/14 12:05:06;;;;;;;2.30;1.83;;;24.30;99.90;;;;;;5078241;28;20029;-87
2022/09/14 12:07:44;;;;;;;6.32;2.28;;;24.50;99.90;;;;;;5062846;28;20017;-87
2022/09/14 12:10:14;;;;;;;4.45;2.55;;;24.40;97.80;;;;;;5085951;28;20025;-87
2022/09/14 12:12:45;;;;;;;2.88;1.90;;;24.30;99.20;;;;;;5061239;28;20029;-86
2022/09/14 12:15:24;;;;;;;2.97;2.22;;;24.20;98.20;;;;;;5062696;28;20036;-87
2022/09/14 12:18:21;;;;;;;2.22;1.90;;;24.10;99.90;;;;;;5058073;28;20025;-86
2022/09/14 12:20:59;;;;;;;3.92;1.90;;;24.20;99.90;;;;;;5081790;28;20032;-86
2022/09/14 12:23:50;;;;;;;3.17;2.10;;;24.20;99.90;;;;;;5082847;28;20059;-86
2022/09/14 12:26:19;;;;;;;5.55;1.90;;;24.30;99.90;;;;;;5060342;28;20064;-86
2022/09/14 12:29:25;;;;;;;2.35;2.10;;;24.30;99.90;;;;;;5079295;28;20036;-86
2022/09/14 12:31:51;;;;;;;3.55;1.92;;;24.20;99.90;;;;;;5063826;28;20519;-88
2022/09/14 12:34:19;;;;;;;4.78;2.42;;;24.10;97.80;;;;;;5084714;28;20032;-88
2022/09/14 12:36:48;;;;;;;4.40;1.85;;;24.00;99.80;;;;;;5066127;28;20369;-87
2022/09/14 12:40:05;;;;;;;2.47;2.13;;;24.00;99.60;;;;;;5088555;28;20020;-87
2022/09/14 12:42:31;;;;;;;2.95;1.92;;;24.10;99.90;;;;;;5047769;28;20097;-87
2022/09/14 12:45:17;;;;;;;3.10;2.03;;;24.10;99.90;;;;;;5071291;28;20017;-87
2022/09/14 12:47:50;;;;;;;3.25;2.10;;;24.20;99.90;;;;;;5068883;28;20065;-87
2022/09/14 12:50:19;;;;;;;4.80;2.30;;;24.20;99.90;;;;;;5041509;28;20025;-87
2022/09/14 12:53:30;;;;;;;3.80;2.30;;;24.20;99.90;;;;;;5059013;28;20021;-87
2022/09/14 12:56:05;;;;;;;2.40;2.20;;;24.30;99.90;;;;;;5039154;28;20144;-87
2022/09/14 12:58:37;;;;;;;3.38;2.25;;;24.30;99.90;;;;;;5045623;28;20441;-87
2022/09/14 13:01:26;;;;;;;2.70;2.13;;;24.20;99.90;;;;;;5051000;28;20033;-87
2022/09/14 13:03:54;;;;;;;3.38;2.42;;;24.10;99.90;;;;;;5057099;28;20481;-87
2022/09/14 13:06:22;;;;;;;2.25;2.00;;;24.00;99.90;;;;;;5036551;28;20021;-87
2022/09/14 13:08:51;;;;;;;;;;;24.00;99.90;;;;;;5049723;28;20074;-87
2022/09/14 13:11:40;;;;;;;3.88;2.33;;;23.90;99.90;;;;;;5046724;28;19915;-88
2022/09/14 13:14:11;;;;;;;3.92;2.17;;;23.90;99.90;;;;;;5069569;28;20036;-87
2022/09/14 13:16:46;;;;;;;3.03;2.33;;;23.90;99.90;;;;;;5048321;28;20029;-87
2022/09/14 13:19:19;;;;;;;5.25;2.33;;;24.00;99.90;;;;;;5075848;28;20025;-87